Latest Weather Observations for Ernabella/Pukatja

IDS60801

Issued at 3:01 am CST Friday 19 August 2022 (issued every 10 minutes, with the page automatically refreshed every 10 minutes)

About weather observations | Map of weather stations | Latest weather observations for SA | Other Formats
Station Details ID: 016097 Name: PUKATJA Lat: -26.26 Lon: 132.18 Height: 703.2 m
Data from the previous 72 hours. | See also: Recent months at Ernabella/Pukatja
Date/Time
CST
Temp
°C
App
Temp
°C
Dew
Point
°C
Rel
Hum
%
Delta-T
°C
Wind Press
QNH
hPa
Press
MSL
hPa
Rain since
9am
mm
Dir  Spd
km/h
Gust
km/h
Spd
kts
Gust
kts
19/03:00am 8.0 1.5 2.9 70 2.2 S 26 32 14 17 1025.6 1024.6 0.0
19/02:30am 8.2 2.5 2.7 68 2.4 S 22 32 12 17 1025.6 1024.6 0.0
19/02:00am 8.5 3.3 2.5 66 2.6 S 19 33 10 18 1025.6 1024.6 0.0
19/01:30am 7.3 4.3 2.2 70 2.2 SSE 7 11 4 6 1025.5 1024.4 0.0
19/01:00am 8.2 4.5 2.2 66 2.6 S 11 20 6 11 1025.5 1024.4 0.0
19/12:30am 7.8 4.9 2.7 70 2.2 SSE 7 15 4 8 1025.6 1024.6 0.0
19/12:00am 8.5 4.5 2.9 68 2.5 SSE 13 20 7 11 1025.6 1024.6 0.0
 
Date/Time
CST
Temp
°C
App
Temp
°C
Dew
Point
°C
Rel
Hum
%
Delta-T
°C
Wind Press
QNH
hPa
Press
MSL
hPa
Rain since
9am
mm
Dir  Spd
km/h
Gust
km/h
Spd
kts
Gust
kts
18/11:30pm 9.0 3.8 2.6 64 2.8 S 19 30 10 16 1025.5 1024.4 0.0
18/11:00pm 9.3 4.0 2.9 64 2.9 S 20 32 11 17 1025.3 1024.2 0.0
18/10:30pm 9.6 2.4 3.1 64 2.9 S 30 41 16 22 1025.1 1024.0 0.0
18/10:00pm 9.7 3.7 3.2 64 2.9 S 24 35 13 19 1024.9 1023.8 0.0
18/09:33pm 9.9 3.2 3.4 64 2.9 S 28 46 15 25 1024.9 1023.8 0.0
18/09:30pm 10.1 2.6 3.4 63 3.0 S 32 46 17 25 1024.8 1023.7 0.0
18/09:16pm 10.3 2.8 3.3 62 3.2 S 32 56 17 30 1024.6 1023.5 0.0
18/09:00pm 10.3 3.5 3.3 62 3.2 S 28 43 15 23 1024.4 1023.4 0.0
18/08:30pm 10.6 4.3 3.6 62 3.2 SSW 26 41 14 22 1024.1 1023.0 0.0
18/08:00pm 10.8 3.3 3.4 60 3.4 S 32 46 17 25 1023.7 1022.6 0.0
18/07:30pm 11.0 4.3 3.8 61 3.3 S 28 41 15 22 1023.1 1021.9 0.0
18/07:05pm 11.4 4.7 3.9 60 3.5 SSW 28 46 15 25 1022.8 1021.7 0.0
18/07:00pm 11.5 4.0 4.5 62 3.3 S 33 46 18 25 1022.7 1021.6 0.0
18/06:36pm 12.2 5.6 4.4 59 3.7 SSW 28 46 15 25 1022.3 1021.2 0.0
18/06:30pm 12.4 5.8 4.1 57 3.9 SSW 28 39 15 21 1022.2 1021.1 0.0
18/06:00pm 13.5 6.3 4.9 56 4.1 S 32 43 17 23 1021.8 1020.6 0.0
18/05:30pm 15.3 8.9 5.2 51 5.0 SSW 28 52 15 28 1021.6 1020.4 0.0
18/05:00pm 15.5 8.3 5.7 52 4.9 SSW 33 52 18 28 1021.0 1019.9 0.0
18/04:30pm 15.1 6.8 5.9 54 4.6 SSW 39 57 21 31 1020.6 1019.4 0.0
18/04:09pm 16.0 7.3 7.5 57 4.4 SSW 43 61 23 33 1020.2 1019.0 0.0
18/04:00pm 15.8 6.4 7.3 57 4.4 SW 46 63 25 34 1020.1 1018.9 0.0
18/03:30pm 17.7 7.8 8.3 54 5.0 SW 50 65 27 35 1019.3 1018.1 0.0
18/03:12pm 20.5 11.7 8.2 45 6.6 SW 44 67 24 36 1018.5 1017.3 0.0
18/03:00pm 20.6 11.9 7.9 44 6.8 SW 43 56 23 30 1018.1 1016.9 0.0
18/02:48pm 21.1 14.2 8.7 45 6.8 SW 35 54 19 29 1017.9 1016.7 0.0
18/02:30pm 20.8 14.3 8.8 46 6.5 SW 33 50 18 27 1018.0 1016.8 0.0
18/02:00pm 22.2 14.9 8.7 42 7.4 SW 37 56 20 30 1017.6 1016.4 0.0
18/01:55pm 22.2 14.9 8.7 42 7.4 SSW 37 56 20 30 1017.5 1016.3 0.0
18/01:30pm 22.9 16.2 8.2 39 8.0 SW 33 46 18 25 1017.3 1016.1 0.0
18/01:00pm 24.0 17.7 7.6 35 8.9 WSW 30 46 16 25 1017.2 1016.0 0.0
18/12:53pm 23.6 16.8 7.7 36 8.6 WSW 33 52 18 28 1017.1 1015.9 0.0
18/12:30pm 23.7 16.0 7.3 35 8.8 SW 37 54 20 29 1017.1 1015.9 0.0
18/12:00pm 24.0 17.2 7.6 35 8.9 SW 33 44 18 24 1017.1 1015.9 0.0
18/11:36am 23.9 18.0 7.5 35 8.9 SW 28 46 15 25 1017.0 1015.8 0.0
18/11:30am 23.1 17.8 6.8 35 8.7 SSW 24 35 13 19 1017.1 1015.9 0.0
18/11:16am 22.6 15.8 6.8 36 8.4 SW 32 43 17 23 1017.3 1016.1 0.0
18/11:00am 22.2 18.6 5.2 33 8.8 SW 13 24 7 13 1017.4 1016.2 0.0
18/10:30am 20.9 15.7 2.2 29 9.0 SW 19 26 10 14 1017.5 1016.3 0.0
18/10:00am 20.1 13.6 2.5 31 8.5 SW 26 35 14 19 1017.6 1016.4 0.0
18/09:30am 19.9 13.9 0.9 28 8.9 WSW 22 30 12 16 1017.2 1016.0 0.0
18/09:00am 19.4 15.7 -0.1 27 8.9 E 9 17 5 9 1017.0 1015.8 0.0
18/08:30am 17.0 12.8 1.8 36 7.1 ENE 13 17 7 9 1016.4 1015.2 0.0
18/08:00am 15.4 11.2 1.5 39 6.3 ENE 13 17 7 9 1016.3 1015.1 0.0
18/07:30am 12.4 9.0 -1.9 37 5.9 SSE 6 7 3 4 1016.2 1015.0 0.0
18/07:00am 12.7 9.6 -2.3 35 6.1 WNW 4 9 2 5 1016.0 1014.8 0.0
18/06:30am 14.9 10.9 -2.5 30 7.2 WNW 9 13 5 7 1016.0 1014.8 0.0
18/06:00am 17.7 12.5 -2.5 25 8.6 WSW 15 20 8 11 1015.9 1014.7 0.0
18/05:30am 18.9 13.8 -2.1 24 9.2 W 15 19 8 10 1015.5 1014.2 0.0
18/05:00am 20.7 15.5 -2.4 21 10.2 WNW 15 22 8 12 1015.0 1013.8 0.0
18/04:30am 20.7 14.8 -2.4 21 10.2 WNW 19 28 10 15 1015.0 1013.8 0.0
18/04:00am 21.0 14.9 -2.1 21 10.3 WNW 20 33 11 18 1015.1 1013.9 0.0
18/03:30am 21.2 14.4 -2.0 21 10.3 NW 24 33 13 18 1015.1 1013.9 0.0
18/03:00am 20.9 14.1 -2.2 21 10.2 NW 24 35 13 19 1015.2 1014.0 0.0
18/02:30am 21.9 13.9 -2.0 20 10.7 NW 30 43 16 23 1015.2 1014.0 0.0
18/02:00am 21.5 14.0 -1.7 21 10.4 NW 28 41 15 22 1015.5 1014.2 0.0
18/01:30am 21.8 14.2 -2.1 20 10.7 NW 28 41 15 22 1015.6 1014.3 0.0
18/01:00am 22.1 15.2 -2.6 19 11.0 NW 24 35 13 19 1015.8 1014.6 0.0
18/12:30am 22.2 15.3 -2.5 19 11.0 NW 24 35 13 19 1016.2 1015.0 0.0
18/12:00am 20.7 16.4 -1.8 22 10.0 WNW 11 20 6 11 1016.6 1015.4 0.0
 
Date/Time
CST
Temp
°C
App
Temp
°C
Dew
Point
°C
Rel
Hum
%
Delta-T
°C
Wind Press
QNH
hPa
Press
MSL
hPa
Rain since
9am
mm
Dir  Spd
km/h
Gust
km/h
Spd
kts
Gust
kts
17/11:30pm 19.9 15.7 -3.7 20 10.0 WNW 9 19 5 10 1017.0 1015.8 0.0
17/11:00pm 21.3 16.4 -3.2 19 10.7 NW 13 20 7 11 1017.1 1015.9 0.0
17/10:30pm 22.8 16.7 -3.5 17 11.5 NW 19 26 10 14 1017.0 1015.8 0.0
17/10:00pm 22.5 17.6 -3.7 17 11.4 NW 13 22 7 12 1017.3 1016.1 0.0
17/09:30pm 23.0 18.1 -3.3 17 11.6 NNW 13 28 7 15 1017.4 1016.2 0.0
17/09:00pm 20.6 17.0 -3.8 19 10.4 W 6 11 3 6 1017.5 1016.3 0.0
17/08:30pm 20.8 16.9 -4.4 18 10.7 NW 7 15 4 8 1017.5 1016.3 0.0
17/08:00pm 19.6 16.0 -3.9 20 9.9 NNW 6 11 3 6 1017.4 1016.2 0.0
17/07:30pm 19.6 15.9 -4.6 19 10.1 NNW 6 9 3 5 1017.2 1016.0 0.0
17/07:00pm 21.6 17.3 -4.5 17 11.1 NNW 9 15 5 8 1017.0 1015.8 0.0
17/06:30pm 23.3 18.1 -5.7 14 12.2 NW 13 22 7 12 1016.7 1015.5 0.0
17/06:00pm 25.1 18.9 -5.2 13 13.1 NNW 19 24 10 13 1016.3 1015.1 0.0
17/05:30pm 26.2 20.3 -5.4 12 13.8 NW 17 30 9 16 1016.4 1015.2 0.0
17/05:00pm 26.5 20.0 -6.3 11 14.1 NW 20 30 11 16 1016.4 1015.2 0.0
17/04:30pm 27.2 20.3 -5.8 11 14.4 WNW 22 32 12 17 1016.5 1015.3 0.0
17/04:00pm 27.0 20.0 -7.2 10 14.5 WNW 22 33 12 18 1016.7 1015.5 0.0
17/03:30pm 27.4 21.5 -5.6 11 14.5 WNW 17 26 9 14 1017.1 1015.9 0.0
17/03:00pm 26.7 18.9 -7.4 10 14.4 WNW 26 37 14 20 1017.3 1016.1 0.0
17/02:30pm 26.7 19.8 -6.2 11 14.2 WNW 22 33 12 18 1017.5 1016.3 0.0
17/02:00pm 26.3 19.5 -5.3 12 13.8 NW 22 35 12 19 1017.8 1016.6 0.0
17/01:30pm 25.5 18.6 -6.0 12 13.5 NW 22 35 12 19 1018.7 1017.5 0.0
17/01:00pm 24.8 18.0 -5.5 13 13.0 WNW 22 39 12 21 1019.2 1018.0 0.0
17/12:30pm 24.2 18.3 -5.9 13 12.8 NW 17 26 9 14 1019.7 1018.6 0.0
17/12:00pm 23.6 17.2 -5.4 14 12.3 WNW 20 28 11 15 1020.4 1019.2 0.0
17/11:30am 22.6 16.2 -5.3 15 11.8 NNW 20 30 11 16 1020.7 1019.6 0.0
17/11:00am 21.9 16.1 -5.0 16 11.4 NNW 17 24 9 13 1021.2 1020.1 0.0
17/10:30am 20.9 15.1 -5.0 17 10.8 NNW 17 26 9 14 1021.6 1020.4 0.0
17/10:00am 19.6 14.2 -4.6 19 10.1 N 15 19 8 10 1021.6 1020.4 0.0
17/09:30am 18.0 13.8 -4.0 22 9.1 NNE 9 15 5 8 1021.7 1020.5 0.0
17/09:00am 16.5 10.8 -3.6 25 8.3 ENE 17 20 9 11 1021.7 1020.5 0.0
17/08:30am 14.5 10.0 -3.3 29 7.2 E 11 15 6 8 1021.2 1020.1 0.0
17/08:00am 12.1 7.5 -3.7 33 6.2 E 11 13 6 7 1021.1 1020.0 0.0
17/07:30am 9.3 4.7 -4.3 38 5.1 E 11 15 6 8 1020.9 1019.8 0.0
17/07:00am 9.8 7.2 -4.5 36 5.4 CALM 0 6 0 3 1020.5 1019.3 0.0
17/06:30am 9.0 4.0 -4.5 38 5.0 N 13 15 7 8 1020.2 1019.0 0.0
17/06:00am 9.8 5.9 -4.5 36 5.4 NNE 7 13 4 7 1020.0 1018.8 0.0
17/05:30am 11.2 6.2 -4.5 33 6.0 N 13 19 7 10 1019.6 1018.5 0.0
17/05:00am 10.7 6.1 -4.5 34 5.8 N 11 15 6 8 1019.5 1018.4 0.0
17/04:30am 9.7 5.4 -5.0 35 5.5 N 9 15 5 8 1019.4 1018.3 0.0
17/04:00am 10.9 6.6 -4.7 33 5.9 NNE 9 15 5 8 1019.5 1018.4 0.0
17/03:30am 8.7 4.9 -5.2 37 5.1 ENE 6 9 3 5 1019.5 1018.4 0.0
17/03:00am 9.4 5.4 -5.3 35 5.4 ENE 7 9 4 5 1019.7 1018.6 0.0
17/02:30am 9.5 5.7 -5.2 35 5.4 NE 6 9 3 5 1020.0 1018.8 0.0
17/02:00am 10.4 6.0 -5.6 32 5.9 NNE 9 13 5 7 1020.3 1019.1 0.0
17/01:30am 11.1 6.0 -4.9 32 6.1 N 13 17 7 9 1020.4 1019.2 0.0
17/01:00am 11.8 6.7 -5.2 30 6.5 NE 13 15 7 8 1020.5 1019.3 0.0
17/12:30am 13.4 8.3 -5.2 27 7.2 N 13 20 7 11 1020.6 1019.4 0.0
17/12:00am 13.7 7.5 -4.9 27 7.2 N 19 26 10 14 1020.8 1019.7 0.0
 
Date/Time
CST
Temp
°C
App
Temp
°C
Dew
Point
°C
Rel
Hum
%
Delta-T
°C
Wind Press
QNH
hPa
Press
MSL
hPa
Rain since
9am
mm
Dir  Spd
km/h
Gust
km/h
Spd
kts
Gust
kts
16/11:30pm 14.4 8.2 -5.3 25 7.7 N 19 26 10 14 1021.0 1019.9 0.0
16/11:00pm 14.3 8.5 -4.4 27 7.4 N 17 24 9 13 1020.9 1019.8 0.0
16/10:30pm 12.4 8.5 -5.1 29 6.7 NE 7 11 4 6 1021.0 1019.9 0.0
16/10:00pm 13.5 9.6 -5.1 27 7.2 NNE 7 9 4 5 1021.1 1020.0 0.0
16/09:30pm 13.3 8.6 -4.8 28 7.0 ENE 11 13 6 7 1021.2 1020.1 0.0
16/09:00pm 12.4 9.0 -5.1 29 6.7 NE 4 9 2 5 1021.1 1020.0 0.0
16/08:30pm 13.5 9.7 -5.1 27 7.2 NNE 6 7 3 4 1021.0 1019.9 0.0
16/08:00pm 13.8 10.0 -5.3 26 7.4 NNE 6 6 3 3 1020.9 1019.8 0.0
16/07:30pm 15.2 12.6 -5.2 24 8.0 CALM 0 0 0 0 1020.7 1019.6 0.0
16/07:00pm 15.9 12.1 -5.2 23 8.4 N 6 7 3 4 1020.5 1019.3 0.0
16/06:30pm 18.0 13.6 -5.9 19 9.5 NNE 9 11 5 6 1020.3 1019.1 0.0
16/06:00pm 20.6 15.7 -6.9 15 11.0 NNE 11 15 6 8 1020.1 1018.9 0.0
16/05:30pm 21.9 16.6 -6.8 14 11.7 N 13 19 7 10 1019.8 1018.7 0.0
16/05:00pm 22.5 17.2 -7.3 13 12.1 NE 13 17 7 9 1019.6 1018.5 0.0
16/04:30pm 23.1 18.2 -6.8 13 12.3 NE 11 19 6 10 1019.5 1018.4 0.0
16/04:00pm 23.1 18.6 -6.8 13 12.4 N 9 13 5 7 1019.6 1018.5 0.0
16/03:30pm 23.3 18.4 -6.6 13 12.4 NNE 11 17 6 9 1020.0 1018.8 0.0
16/03:00pm 22.9 18.5 -6.0 14 12.1 NW 9 19 5 10 1020.2 1019.0 0.0
16/02:30pm 22.2 17.7 -6.5 14 11.8 ENE 9 15 5 8 1020.5 1019.3 0.0
16/02:00pm 21.7 17.2 -6.9 14 11.6 NNE 9 17 5 9 1020.9 1019.8 0.0
16/01:30pm 21.5 16.3 -6.2 15 11.4 E 13 17 7 9 1021.3 1020.2 0.0
16/01:00pm 20.9 16.0 -6.7 15 11.2 N 11 19 6 10 1021.9 1020.8 0.0
16/12:30pm 20.7 15.4 -3.7 19 10.4 ENE 15 20 8 11 1022.3 1021.2 0.0
16/12:00pm 19.7 15.1 -3.9 20 10.0 ENE 11 17 6 9 1023.0 1021.8 0.0
16/11:30am 18.6 14.0 -0.7 27 8.6 NE 13 20 7 11 1023.3 1022.2 0.0
16/11:00am 17.5 13.1 0.2 31 7.8 ENE 13 20 7 11 1023.6 1022.5 0.0
16/10:30am 16.6 12.6 0.7 34 7.2 ENE 11 20 6 11 1023.8 1022.7 0.0
16/10:00am 15.4 11.1 1.2 38 6.4 ENE 13 17 7 9 1023.7 1022.6 0.0
16/09:30am 14.1 10.7 1.7 43 5.6 ENE 9 11 5 6 1023.5 1022.4 0.0
16/09:00am 12.5 9.7 1.8 48 4.8 NNE 6 7 3 4 1023.4 1022.3 0.0
16/08:30am 9.4 7.6 1.3 57 3.5 CALM 0 0 0 0 1023.3 1022.2 0.0
16/08:00am 5.9 4.0 0.5 68 2.2 CALM 0 0 0 0 1023.3 1022.2 0.0
16/07:30am 2.1 -0.3 -2.8 70 1.7 CALM 0 4 0 2 1023.0 1021.8 0.0
16/07:00am 4.2 0.8 -0.4 72 1.8 W 7 9 4 5 1022.6 1021.5 0.0
16/06:30am 2.8 -0.5 -1.4 74 1.6 NNE 6 9 3 5 1022.3 1021.2 0.0
16/06:00am 2.9 0.6 -2.2 69 1.9 CALM 0 6 0 3 1021.7 1020.5 0.0
16/05:30am 3.6 0.6 -1.9 67 2.0 NNE 4 11 2 6 1021.1 1020.0 0.0
16/05:00am 5.2 1.7 -1.3 63 2.5 NE 7 11 4 6 1020.9 1019.8 0.0
16/04:30am 6.5 3.2 -0.2 62 2.7 NNE 7 11 4 6 1021.0 1019.9 0.0
16/04:00am 6.4 3.2 -0.6 61 2.8 ENE 6 11 3 6 1021.3 1020.2 0.0
16/03:30am 7.8 4.5 -0.9 54 3.5 ENE 6 9 3 5 1021.7 1020.5 0.0

Other formats

Comma delimited format used in spreadsheet applications
http://www.bom.gov.au/fwo/IDS60801/IDS60801.94474.axf

JavaScript Object Notation format (JSON) in row-major order
http://www.bom.gov.au/fwo/IDS60801/IDS60801.94474.json

Data quality

Most of these data are generated automatically and are frequently updated. Quality checks on data are not normally performed. It is possible for incorrect values to appear. Refer to information at About Latest Weather Observations and please check the disclaimer before using these data.